Time;durP1;ratioP1;P1;durP2;ratioP2;P2;SDS_P1;SDS_P2;PMS_P1;PMS_P2;Temp;Humidity;BMP_temperature;BMP_pressure;BME280_temperature;BME280_humidity;BME280_pressure;Samples;Min_cycle;Max_cycle;Signal;HPM_P1;HPM_P2
2023/05/08 00:00:16;;;;;;;17.95;16.55;;;;;;;15.35;100.00;101985.16;5099825;28;20105;-67
2023/05/08 00:02:41;;;;;;;18.65;17.02;;;;;;;15.30;100.00;101982.03;5100237;27;20036;-67
2023/05/08 00:05:07;;;;;;;18.52;17.02;;;;;;;15.24;100.00;101988.84;5092251;28;20415;-67
2023/05/08 00:07:32;;;;;;;18.85;17.10;;;;;;;15.24;100.00;101991.53;5090083;28;20023;-67
2023/05/08 00:09:57;;;;;;;18.67;16.98;;;;;;;15.24;100.00;101996.09;5097913;28;20035;-67
2023/05/08 00:12:23;;;;;;;18.98;17.40;;;;;;;15.26;100.00;101994.94;5102940;28;20032;-67
2023/05/08 00:14:48;;;;;;;20.00;18.13;;;;;;;15.25;100.00;101998.63;5100779;28;20031;-67
2023/05/08 00:17:13;;;;;;;19.35;17.52;;;;;;;15.25;100.00;101997.75;5093353;28;20038;-67
2023/05/08 00:19:39;;;;;;;20.83;18.98;;;;;;;15.34;100.00;101998.72;5094862;28;20058;-67
2023/05/08 00:22:04;;;;;;;19.98;18.08;;;;;;;15.22;100.00;101996.22;5096715;28;20023;-68
2023/05/08 00:24:29;;;;;;;19.55;17.95;;;;;;;15.22;100.00;101990.00;5095072;28;20141;-67
2023/05/08 00:26:55;;;;;;;19.98;18.33;;;;;;;15.19;100.00;101993.81;5098698;28;20023;-67
2023/05/08 00:29:20;;;;;;;20.52;18.75;;;;;;;15.15;100.00;101981.66;5102584;28;20024;-67
2023/05/08 00:31:45;;;;;;;20.00;18.10;;;;;;;15.14;100.00;101985.34;5098209;28;20408;-67
2023/05/08 00:34:11;;;;;;;20.02;18.40;;;;;;;15.12;100.00;101993.53;5094984;28;20509;-67
2023/05/08 00:36:36;;;;;;;19.10;17.60;;;;;;;15.13;100.00;101987.19;5092261;28;20059;-67
2023/05/08 00:39:01;;;;;;;19.27;17.55;;;;;;;15.10;100.00;101994.69;5094172;28;20515;-67
2023/05/08 00:41:26;;;;;;;17.65;16.25;;;;;;;15.13;100.00;101997.09;5095444;28;20480;-67
2023/05/08 00:43:52;;;;;;;19.45;17.90;;;;;;;15.07;100.00;101992.28;5098819;28;20035;-67
2023/05/08 00:46:17;;;;;;;18.98;17.42;;;;;;;15.06;100.00;101988.75;5101895;28;20102;-67
2023/05/08 00:48:44;;;;;;;;;;;;;;;15.23;100.00;101991.69;5105111;28;20020;-67
2023/05/08 00:51:10;;;;;;;19.60;18.10;;;;;;;15.07;100.00;101986.91;5094773;28;19919;-67
2023/05/08 00:53:39;;;;;;;19.42;17.75;;;;;;;15.05;100.00;101984.38;5096102;28;20294;-67
2023/05/08 00:56:09;;;;;;;18.55;16.98;;;;;;;15.07;100.00;101982.38;5096967;28;20027;-68
2023/05/08 00:58:34;;;;;;;19.33;17.70;;;;;;;15.03;100.00;101986.34;5100472;28;20031;-68
2023/05/08 01:01:00;;;;;;;18.13;16.73;;;;;;;15.03;100.00;101978.28;5098029;28;20476;-68
2023/05/08 01:03:26;;;;;;;18.15;16.65;;;;;;;15.02;100.00;101981.97;5095578;28;20032;-68
2023/05/08 01:05:51;;;;;;;18.98;17.38;;;;;;;15.02;100.00;101976.59;5089639;28;20107;-68
2023/05/08 01:08:16;;;;;;;19.27;17.63;;;;;;;15.04;100.00;101976.44;5091657;28;20032;-68
2023/05/08 01:10:51;;;;;;;19.67;17.67;;;;;;;15.04;100.00;101980.00;5097232;28;20084;-68
2023/05/08 01:13:42;;;;;;;18.40;16.90;;;;;;;15.00;100.00;101978.56;5097246;27;20034;-68
2023/05/08 01:16:15;;;;;;;18.33;16.73;;;;;;;14.97;100.00;101981.56;5099532;28;20080;-68
2023/05/08 01:18:54;;;;;;;17.85;16.35;;;;;;;15.02;100.00;101981.13;5107057;27;20481;-68
2023/05/08 01:21:31;;;;;;;18.25;16.75;;;;;;;14.98;100.00;101980.56;5096076;27;20151;-68
2023/05/08 01:24:05;;;;;;;;;;;;;;;15.12;100.00;101974.72;5098222;28;20053;-68
2023/05/08 01:26:49;;;;;;;19.50;17.75;;;;;;;15.05;100.00;101975.47;5095796;27;19957;-67
2023/05/08 01:29:52;;;;;;;20.05;18.25;;;;;;;15.03;100.00;101978.28;5096048;27;20039;-67
2023/05/08 01:32:23;;;;;;;19.50;17.80;;;;;;;14.99;100.00;101978.72;5100336;27;20036;-67
2023/05/08 01:35:36;;;;;;;19.50;17.85;;;;;;;14.99;100.00;101974.22;5103945;28;20020;-66
2023/05/08 01:38:11;;;;;;;19.80;18.20;;;;;;;15.01;100.00;101979.44;5094148;27;20039;-67
2023/05/08 01:41:03;;;;;;;20.63;18.73;;;;;;;15.00;100.00;101977.72;5100482;27;20055;-67
2023/05/08 01:43:38;;;;;;;20.33;18.48;;;;;;;14.99;100.00;101981.41;5082168;27;20044;-67
2023/05/08 01:46:08;;;;;;;20.40;18.63;;;;;;;15.03;100.00;101977.47;5100533;27;20027;-67
2023/05/08 01:48:37;;;;;;;21.65;19.45;;;;;;;14.96;100.00;101976.34;5099152;28;20080;-67
2023/05/08 01:51:15;;;;;;;20.02;18.40;;;;;;;14.98;100.00;101980.56;5101386;27;20101;-67
2023/05/08 01:53:44;;;;;;;21.33;19.58;;;;;;;14.92;100.00;101982.00;5104199;27;20079;-67
2023/05/08 01:56:12;;;;;;;20.77;18.98;;;;;;;14.97;100.00;101978.00;5098689;27;20055;-67
2023/05/08 01:58:40;;;;;;;22.38;20.48;;;;;;;15.01;100.00;101984.81;5093616;27;20031;-67
2023/05/08 02:01:07;;;;;;;22.17;20.17;;;;;;;14.99;100.00;101981.41;5095851;27;20050;-67
2023/05/08 02:03:34;;;;;;;21.27;19.42;;;;;;;15.04;100.00;101979.13;5099724;28;20024;-67
2023/05/08 02:06:00;;;;;;;21.67;19.75;;;;;;;14.97;100.00;101984.25;5100467;28;20033;-67
2023/05/08 02:08:28;;;;;;;21.10;19.27;;;;;;;14.96;100.00;101981.72;5099728;28;20031;-68
2023/05/08 02:10:56;;;;;;;20.92;19.13;;;;;;;14.92;100.00;101983.84;5098375;27;20050;-67
2023/05/08 02:13:22;;;;;;;21.30;19.35;;;;;;;14.92;100.00;101986.53;5103109;28;20031;-67
2023/05/08 02:15:51;;;;;;;22.27;20.27;;;;;;;14.92;100.00;102000.78;5100279;28;20086;-67
2023/05/08 02:18:21;;;;;;;22.15;20.20;;;;;;;14.93;100.00;101991.72;5090739;28;20122;-67
2023/05/08 02:20:49;;;;;;;21.85;19.85;;;;;;;14.86;100.00;101995.97;5099917;27;20015;-67
2023/05/08 02:23:16;;;;;;;21.92;19.95;;;;;;;14.90;100.00;101992.03;5099863;28;20040;-67
2023/05/08 02:25:43;;;;;;;22.38;20.17;;;;;;;14.90;100.00;101996.53;5096765;28;20043;-67
2023/05/08 02:28:10;;;;;;;23.13;20.85;;;;;;;14.87;100.00;101994.16;5099360;27;20034;-67
2023/05/08 02:30:36;;;;;;;22.85;20.77;;;;;;;14.94;100.00;102000.66;5100314;27;20028;-67
2023/05/08 02:33:03;;;;;;;21.85;19.92;;;;;;;14.92;100.00;102002.63;5094908;28;20032;-67
2023/05/08 02:35:30;;;;;;;20.85;19.05;;;;;;;14.88;100.00;101991.34;5097409;27;20499;-67
2023/05/08 02:37:56;;;;;;;22.27;20.38;;;;;;;14.85;100.00;101996.97;5100888;27;20039;-67
2023/05/08 02:40:26;;;;;;;21.80;19.70;;;;;;;14.83;100.00;101992.72;5097985;27;20421;-67
2023/05/08 02:42:52;;;;;;;21.77;19.85;;;;;;;14.78;100.00;101989.63;5103773;27;20384;-67
2023/05/08 02:45:18;;;;;;;21.35;19.45;;;;;;;14.82;100.00;101991.91;5102941;28;20016;-67
2023/05/08 02:47:47;;;;;;;23.00;20.75;;;;;;;14.84;100.00;101995.28;5099751;28;20024;-67
2023/05/08 02:50:18;;;;;;;23.52;21.48;;;;;;;14.84;100.00;101997.97;5099669;27;20039;-67
2023/05/08 02:52:48;;;;;;;22.80;20.70;;;;;;;14.83;100.00;101990.03;5095912;27;20096;-68
2023/05/08 02:55:19;;;;;;;23.55;21.33;;;;;;;14.81;100.00;101992.03;5095070;27;20100;-67
2023/05/08 02:57:57;;;;;;;22.85;20.88;;;;;;;14.81;100.00;101990.19;5099271;27;20118;-67
2023/05/08 03:00:30;;;;;;;23.13;20.92;;;;;;;14.84;100.00;101986.38;5099061;28;20450;-68
2023/05/08 03:03:03;;;;;;;23.70;21.50;;;;;;;14.85;100.00;101985.38;5096945;28;20031;-67
2023/05/08 03:05:31;;;;;;;23.95;21.80;;;;;;;14.83;100.00;101984.66;5101082;27;20019;-68
2023/05/08 03:08:02;;;;;;;24.17;21.88;;;;;;;14.82;100.00;101994.56;5095987;27;20038;-68
2023/05/08 03:10:32;;;;;;;24.10;21.92;;;;;;;14.81;100.00;101990.19;5099795;28;20027;-68
2023/05/08 03:13:00;;;;;;;24.27;22.08;;;;;;;14.83;100.00;101990.91;5097081;28;20389;-68
2023/05/08 03:15:45;;;;;;;25.83;23.23;;;;;;;14.85;100.00;101986.25;5093890;28;20024;-68
2023/05/08 03:18:17;;;;;;;25.02;22.77;;;;;;;14.79;100.00;101984.13;5098455;27;20096;-68
2023/05/08 03:20:46;;;;;;;25.50;23.10;;;;;;;14.77;100.00;101987.94;5100035;27;20030;-68
2023/05/08 03:23:14;;;;;;;26.35;23.95;;;;;;;14.75;100.00;101988.09;5095627;28;20065;-67
2023/05/08 03:25:42;;;;;;;25.10;22.80;;;;;;;14.74;100.00;101989.06;5094615;27;20028;-67
2023/05/08 03:28:08;;;;;;;25.48;23.17;;;;;;;14.74;100.00;101987.25;5098241;28;20069;-67
2023/05/08 03:30:39;;;;;;;25.67;23.13;;;;;;;14.71;100.00;101989.38;5100969;27;20023;-67
2023/05/08 03:33:06;;;;;;;24.80;22.60;;;;;;;14.71;100.00;101990.19;5098901;28;20065;-68
2023/05/08 03:35:35;;;;;;;25.13;22.95;;;;;;;14.72;100.00;101994.56;5094174;28;20024;-68
2023/05/08 03:38:00;;;;;;;25.45;22.95;;;;;;;14.70;100.00;101982.28;5096258;28;20106;-68
2023/05/08 03:40:26;;;;;;;24.17;22.08;;;;;;;14.70;100.00;101977.75;5098816;28;20552;-68
2023/05/08 03:42:52;;;;;;;26.02;23.63;;;;;;;14.65;100.00;101982.69;5100874;27;20084;-68
2023/05/08 03:45:18;;;;;;;25.67;23.38;;;;;;;14.62;100.00;101982.13;5099553;28;20024;-67
2023/05/08 03:47:45;;;;;;;25.50;23.00;;;;;;;14.62;100.00;101980.31;5098638;27;20433;-68
2023/05/08 03:50:10;;;;;;;25.67;23.08;;;;;;;14.61;100.00;101981.28;5093037;28;20035;-68
2023/05/08 03:52:37;;;;;;;26.05;23.67;;;;;;;14.62;100.00;101980.31;5095733;28;20032;-68
2023/05/08 03:55:03;;;;;;;25.30;22.90;;;;;;;14.54;100.00;101978.28;5097935;28;20024;-67
2023/05/08 03:57:38;;;;;;;25.85;23.30;;;;;;;14.52;100.00;101976.75;5101036;28;20026;-68
2023/05/08 04:00:16;;;;;;;24.63;22.48;;;;;;;14.53;100.00;101973.94;5103551;27;20094;-68
2023/05/08 04:02:51;;;;;;;24.45;22.25;;;;;;;14.54;100.00;101978.28;5100814;28;20038;-68
2023/05/08 04:05:36;;;;;;;25.65;23.35;;;;;;;14.56;100.00;101980.84;5100221;28;20377;-67
2023/05/08 04:08:14;;;;;;;24.52;22.17;;;;;;;14.51;100.00;101986.63;5098055;27;20023;-67
2023/05/08 04:10:57;;;;;;;24.85;22.55;;;;;;;14.53;100.00;101981.97;5097300;27;20385;-68
2023/05/08 04:13:27;;;;;;;24.40;22.20;;;;;;;14.52;100.00;101985.63;5095697;28;20070;-67
2023/05/08 04:16:15;;;;;;;25.85;23.30;;;;;;;14.59;100.00;101990.50;5101675;27;20135;-66
2023/05/08 04:18:46;;;;;;;25.90;23.27;;;;;;;14.61;100.00;101991.19;5101163;28;20038;-66
2023/05/08 04:21:18;;;;;;;26.65;24.05;;;;;;;14.57;100.00;101991.44;5098486;27;20042;-69
2023/05/08 04:23:46;;;;;;;25.88;23.48;;;;;;;14.58;100.00;102000.38;5100546;28;20028;-67
2023/05/08 04:26:14;;;;;;;24.10;21.98;;;;;;;14.56;100.00;101999.63;5101946;28;20039;-67
2023/05/08 04:28:40;;;;;;;25.45;23.13;;;;;;;14.61;100.00;101994.72;5095861;28;20153;-66
2023/05/08 04:31:06;;;;;;;24.88;22.65;;;;;;;14.62;100.00;101996.44;5094112;28;22028;-66
2023/05/08 04:33:34;;;;;;;23.95;21.70;;;;;;;14.65;100.00;101997.97;5099109;28;20023;-67
2023/05/08 04:36:02;;;;;;;25.85;23.55;;;;;;;14.67;100.00;102002.22;5102278;28;20038;-67
2023/05/08 04:38:28;;;;;;;25.55;23.08;;;;;;;14.66;100.00;102000.53;5100174;28;20031;-66
2023/05/08 04:40:53;;;;;;;27.05;24.23;;;;;;;14.67;100.00;102004.91;5097419;28;20040;-66
2023/05/08 04:43:19;;;;;;;27.02;24.25;;;;;;;14.72;100.00;102008.00;5099179;28;20073;-67
2023/05/08 04:45:45;;;;;;;26.45;24.05;;;;;;;14.74;100.00;102003.34;5101814;28;20027;-66
2023/05/08 04:48:10;;;;;;;25.98;23.70;;;;;;;14.78;100.00;102005.72;5103339;28;20113;-67
2023/05/08 04:50:35;;;;;;;27.33;24.90;;;;;;;14.79;100.00;102012.81;5103783;28;20472;-66
2023/05/08 04:53:00;;;;;;;26.10;23.80;;;;;;;14.86;100.00;102013.94;5102606;27;20032;-66
2023/05/08 04:55:26;;;;;;;25.92;23.52;;;;;;;14.79;100.00;102016.34;5093962;27;20455;-67
2023/05/08 04:57:51;;;;;;;;;;;;;;;15.01;100.00;102025.97;5095593;27;20049;-66
2023/05/08 05:00:17;;;;;;;26.87;24.37;;;;;;;14.90;100.00;102018.03;5095937;28;19923;-66
2023/05/08 05:02:42;;;;;;;;;;;;;;;15.06;100.00;102025.50;5101903;27;20277;-66
2023/05/08 05:05:07;;;;;;;24.53;22.33;;;;;;;15.01;100.00;102027.81;5098605;28;19927;-67
2023/05/08 05:07:32;;;;;;;23.63;21.63;;;;;;;15.00;100.00;102021.56;5096009;28;20032;-66
2023/05/08 05:09:59;;;;;;;24.80;22.63;;;;;;;14.99;100.00;102033.31;5096153;27;20036;-66
2023/05/08 05:12:24;;;;;;;24.95;22.73;;;;;;;15.01;100.00;102038.56;5100534;28;20059;-67
2023/05/08 05:14:49;;;;;;;25.08;22.98;;;;;;;14.99;100.00;102027.94;5100929;28;20062;-67
2023/05/08 05:17:15;;;;;;;27.50;24.77;;;;;;;15.02;100.00;102038.38;5100703;27;20112;-67
2023/05/08 05:19:40;;;;;;;27.05;24.48;;;;;;;15.04;100.00;102041.81;5105380;28;20043;-69
2023/05/08 05:22:07;;;;;;;25.67;23.17;;;;;;;15.06;100.00;102041.63;5101174;27;20396;-69
2023/05/08 05:24:34;;;;;;;26.95;24.63;;;;;;;15.09;100.00;102047.59;5102098;27;20519;-69
2023/05/08 05:27:00;;;;;;;26.15;23.75;;;;;;;15.09;100.00;102044.03;5103779;27;20400;-69
2023/05/08 05:29:25;;;;;;;26.95;24.33;;;;;;;15.12;100.00;102051.81;5102669;28;20035;-68
2023/05/08 05:31:50;;;;;;;27.80;25.25;;;;;;;15.16;100.00;102047.84;5094071;28;20057;-66
2023/05/08 05:34:16;;;;;;;27.60;25.13;;;;;;;15.16;100.00;102052.38;5098622;27;20111;-67
2023/05/08 05:36:41;;;;;;;27.75;25.25;;;;;;;15.22;100.00;102052.66;5101940;28;20034;-67
2023/05/08 05:39:06;;;;;;;28.17;25.48;;;;;;;15.29;100.00;102050.25;5097184;27;20062;-67
2023/05/08 05:41:31;;;;;;;28.13;25.52;;;;;;;15.34;100.00;102060.56;5101620;28;20396;-67
2023/05/08 05:43:57;;;;;;;28.15;25.45;;;;;;;15.28;100.00;102061.97;5102815;28;20023;-67
2023/05/08 05:46:26;;;;;;;28.52;25.92;;;;;;;15.39;100.00;102055.59;5100729;27;20141;-67
2023/05/08 05:48:52;;;;;;;28.52;25.83;;;;;;;15.45;100.00;102060.41;5098237;28;20020;-67
2023/05/08 05:51:18;;;;;;;29.25;26.55;;;;;;;15.49;100.00;102062.63;5100248;27;20031;-69
2023/05/08 05:53:43;;;;;;;30.00;27.20;;;;;;;15.54;100.00;102064.06;5094851;28;20043;-67
2023/05/08 05:56:08;;;;;;;30.55;27.75;;;;;;;15.52;100.00;102060.69;5099445;27;20118;-69
2023/05/08 05:58:34;;;;;;;32.22;29.10;;;;;;;15.56;100.00;102064.75;5096351;28;20488;-69
2023/05/08 06:01:00;;;;;;;31.48;28.45;;;;;;;15.62;100.00;102070.41;5105338;28;20031;-67
2023/05/08 06:03:25;;;;;;;32.22;28.92;;;;;;;15.67;100.00;102069.97;5096024;28;20396;-67
2023/05/08 06:05:51;;;;;;;31.30;28.40;;;;;;;15.69;100.00;102070.69;5106431;28;20015;-67
2023/05/08 06:08:17;;;;;;;31.00;28.02;;;;;;;15.72;100.00;102067.69;5101354;28;20473;-67
2023/05/08 06:10:43;;;;;;;32.75;29.48;;;;;;;15.76;100.00;102066.44;5100806;28;20057;-67
2023/05/08 06:13:08;;;;;;;32.03;28.73;;;;;;;15.74;100.00;102070.22;5101763;28;20452;-67
2023/05/08 06:15:34;;;;;;;32.63;29.17;;;;;;;15.84;100.00;102069.22;5098315;28;20037;-67
2023/05/08 06:17:59;;;;;;;31.73;28.52;;;;;;;15.83;100.00;102070.25;5097199;28;20036;-68
2023/05/08 06:20:25;;;;;;;32.13;28.92;;;;;;;15.83;100.00;102069.38;5104096;27;20058;-68
2023/05/08 06:22:50;;;;;;;33.38;30.08;;;;;;;15.86;100.00;102069.91;5104457;28;20032;-67
2023/05/08 06:25:16;;;;;;;32.40;29.35;;;;;;;15.92;100.00;102068.50;5102856;28;20034;-67
2023/05/08 06:27:42;;;;;;;33.65;30.35;;;;;;;15.95;100.00;102068.19;5097338;28;20158;-68
2023/05/08 06:30:09;;;;;;;34.20;31.00;;;;;;;15.95;100.00;102070.88;5100890;28;20024;-67
2023/05/08 06:32:35;;;;;;;34.10;30.90;;;;;;;16.01;100.00;102064.91;5095493;28;20484;-68
2023/05/08 06:35:00;;;;;;;34.05;30.85;;;;;;;16.00;100.00;102068.59;5102667;27;20101;-67
2023/05/08 06:37:25;;;;;;;34.88;31.58;;;;;;;16.07;100.00;102074.25;5100058;28;20019;-68
2023/05/08 06:39:51;;;;;;;34.95;31.52;;;;;;;16.13;100.00;102072.78;5099207;28;20479;-67
2023/05/08 06:42:16;;;;;;;33.45;30.17;;;;;;;16.24;100.00;102065.38;5106208;28;20070;-68
2023/05/08 06:44:41;;;;;;;34.20;31.02;;;;;;;16.23;100.00;102074.47;5099472;27;20031;-68
2023/05/08 06:47:07;;;;;;;35.92;32.55;;;;;;;16.29;100.00;102080.25;5102641;28;20153;-68
2023/05/08 06:49:34;;;;;;;35.20;31.73;;;;;;;16.42;100.00;102076.16;5098991;28;20046;-68
2023/05/08 06:52:00;;;;;;;35.97;32.33;;;;;;;16.41;100.00;102082.56;5098610;28;20036;-68
2023/05/08 06:54:25;;;;;;;35.85;32.30;;;;;;;16.49;100.00;102081.81;5098070;27;20046;-69
2023/05/08 06:56:52;;;;;;;37.42;33.80;;;;;;;16.53;100.00;102087.72;5101944;27;20065;-68
2023/05/08 06:59:17;;;;;;;36.35;32.83;;;;;;;16.60;100.00;102083.44;5098605;28;20024;-69
2023/05/08 07:01:43;;;;;;;36.13;32.55;;;;;;;16.66;100.00;102090.91;5101967;28;20077;-68
2023/05/08 07:04:08;;;;;;;38.55;33.58;;;;;;;16.61;100.00;102094.06;5103604;27;20026;-68
2023/05/08 07:06:33;;;;;;;36.38;32.50;;;;;;;16.67;100.00;102095.28;5097383;27;21170;-68
2023/05/08 07:08:59;;;;;;;37.15;33.45;;;;;;;16.57;100.00;102095.38;5101500;28;20078;-69
2023/05/08 07:11:24;;;;;;;36.83;33.00;;;;;;;16.54;100.00;102095.66;5098697;27;20038;-68
2023/05/08 07:13:49;;;;;;;37.08;33.50;;;;;;;16.58;100.00;102097.03;5095606;28;20067;-69
2023/05/08 07:16:15;;;;;;;38.55;34.95;;;;;;;16.57;100.00;102092.69;5103677;27;20019;-68
2023/05/08 07:18:41;;;;;;;38.58;34.78;;;;;;;16.59;100.00;102090.66;5102673;27;20028;-68
2023/05/08 07:21:06;;;;;;;40.25;36.15;;;;;;;16.54;100.00;102089.44;5096596;28;20023;-69
2023/05/08 07:23:32;;;;;;;40.45;36.25;;;;;;;16.52;100.00;102089.59;5095388;28;20032;-68
2023/05/08 07:25:57;;;;;;;40.65;36.55;;;;;;;16.63;100.00;102091.22;5106575;28;20023;-68
2023/05/08 07:28:23;;;;;;;39.47;35.53;;;;;;;16.59;100.00;102096.06;5101950;28;20055;-68
2023/05/08 07:30:48;;;;;;;40.17;36.15;;;;;;;16.71;100.00;102099.41;5098896;28;20368;-68
2023/05/08 07:33:13;;;;;;;39.08;35.08;;;;;;;16.69;100.00;102087.06;5101374;28;20023;-68
2023/05/08 07:35:39;;;;;;;37.40;33.85;;;;;;;16.68;100.00;102094.31;5096504;28;20464;-69
2023/05/08 07:38:05;;;;;;;37.40;33.88;;;;;;;16.76;100.00;102098.91;5097472;28;20036;-68
2023/05/08 07:40:30;;;;;;;35.60;32.10;;;;;;;16.86;100.00;102088.13;5097719;28;20027;-68
2023/05/08 07:42:55;;;;;;;35.63;32.13;;;;;;;16.92;100.00;102087.50;5101518;28;20027;-69
2023/05/08 07:45:21;;;;;;;35.42;31.88;;;;;;;16.98;100.00;102082.31;5104618;28;20035;-68
2023/05/08 07:47:51;;;;;;;34.33;30.80;;;;;;;17.08;100.00;102084.13;5104806;28;20093;-68
2023/05/08 07:50:17;;;;;;;33.22;29.80;;;;;;;17.15;100.00;102082.50;5100772;28;20027;-69
2023/05/08 07:52:42;;;;;;;30.05;27.10;;;;;;;17.29;100.00;102076.53;5095517;27;20032;-68
2023/05/08 07:55:07;;;;;;;29.95;26.95;;;;;;;17.38;100.00;102089.06;5095927;28;20548;-68
2023/05/08 07:57:37;;;;;;;31.38;28.27;;;;;;;17.38;100.00;102080.97;5093056;28;20028;-69
2023/05/08 08:00:04;;;;;;;30.48;27.58;;;;;;;17.54;100.00;102087.50;5098418;28;20039;-69
2023/05/08 08:02:30;;;;;;;29.48;26.58;;;;;;;17.71;100.00;102085.75;5098343;27;20052;-69
2023/05/08 08:04:55;;;;;;;29.95;27.23;;;;;;;17.96;100.00;102092.16;5104178;28;20065;-69
2023/05/08 08:07:20;;;;;;;28.63;25.88;;;;;;;17.98;100.00;102092.00;5094159;28;20028;-69
2023/05/08 08:09:45;;;;;;;28.48;25.85;;;;;;;17.95;100.00;102085.94;5095316;28;20484;-68
2023/05/08 08:12:11;;;;;;;29.00;26.25;;;;;;;17.96;100.00;102086.78;5103656;28;20039;-69
2023/05/08 08:14:36;;;;;;;28.50;25.80;;;;;;;18.20;100.00;102085.19;5101241;28;20089;-69
2023/05/08 08:17:01;;;;;;;27.60;24.98;;;;;;;18.24;100.00;102086.56;5098712;28;20118;-69
2023/05/08 08:19:26;;;;;;;25.85;23.30;;;;;;;18.48;100.00;102092.03;5093551;28;20162;-68
2023/05/08 08:21:52;;;;;;;25.77;23.38;;;;;;;18.57;100.00;102087.50;5095304;28;20398;-69
2023/05/08 08:24:17;;;;;;;25.58;23.17;;;;;;;18.56;100.00;102090.38;5099233;28;20019;-69
2023/05/08 08:26:42;;;;;;;26.42;23.92;;;;;;;18.51;100.00;102086.31;5096511;28;20040;-69
2023/05/08 08:29:08;;;;;;;25.20;22.83;;;;;;;18.69;100.00;102083.47;5102132;28;20027;-69
2023/05/08 08:31:33;;;;;;;25.05;22.75;;;;;;;18.65;100.00;102087.53;5102258;28;20421;-69
2023/05/08 08:33:58;;;;;;;28.48;25.40;;;;;;;18.72;100.00;102079.59;5101667;28;20170;-69
2023/05/08 08:36:23;;;;;;;27.17;24.70;;;;;;;18.80;100.00;102071.50;5095417;28;20380;-68
2023/05/08 08:38:49;;;;;;;26.80;24.48;;;;;;;18.89;100.00;102075.09;5096420;28;20149;-69
2023/05/08 08:41:14;;;;;;;27.63;25.02;;;;;;;18.92;100.00;102076.63;5104191;28;20019;-69
2023/05/08 08:43:42;;;;;;;27.15;24.70;;;;;;;19.12;100.00;102069.03;5096144;28;20039;-69
2023/05/08 08:46:13;;;;;;;27.55;25.05;;;;;;;19.26;100.00;102071.88;5100800;28;20382;-69
2023/05/08 08:48:43;;;;;;;26.30;23.98;;;;;;;19.34;100.00;102076.44;5095517;28;20036;-69
2023/05/08 08:51:17;;;;;;;27.33;24.70;;;;;;;19.65;100.00;102070.28;5096504;28;20062;-69
2023/05/08 08:53:48;;;;;;;26.83;24.23;;;;;;;19.82;100.00;102080.09;5097415;28;20032;-69
2023/05/08 08:56:15;;;;;;;25.90;23.52;;;;;;;19.88;100.00;102075.88;5095341;28;20040;-69
2023/05/08 08:58:46;;;;;;;27.00;24.60;;;;;;;19.83;100.00;102075.56;5097575;28;20027;-69
2023/05/08 09:01:18;;;;;;;26.05;23.67;;;;;;;19.94;100.00;102075.16;5095898;28;20027;-69
2023/05/08 09:03:43;;;;;;;25.13;22.77;;;;;;;19.82;100.00;102077.41;5095129;28;20493;-69
2023/05/08 09:06:09;;;;;;;25.40;23.00;;;;;;;19.75;100.00;102080.97;5094877;28;20110;-69
2023/05/08 09:08:35;;;;;;;24.95;22.58;;;;;;;19.76;100.00;102079.97;5090969;28;20039;-69
2023/05/08 09:11:01;;;;;;;25.40;23.00;;;;;;;19.57;100.00;102083.88;5100941;28;20079;-69
2023/05/08 09:13:28;;;;;;;25.33;23.08;;;;;;;19.58;100.00;102085.53;5098020;28;20035;-69
2023/05/08 09:15:53;;;;;;;27.30;24.90;;;;;;;19.56;100.00;102085.72;5097777;28;20060;-69
2023/05/08 09:18:19;;;;;;;27.00;24.35;;;;;;;19.59;100.00;102079.97;5095630;28;20103;-69
2023/05/08 09:20:44;;;;;;;27.45;24.95;;;;;;;19.50;100.00;102080.16;5095819;28;20031;-69
2023/05/08 09:23:10;;;;;;;27.17;24.73;;;;;;;19.45;100.00;102075.25;5098715;28;20165;-68
2023/05/08 09:25:49;;;;;;;28.55;25.90;;;;;;;19.51;100.00;102076.41;5096308;27;20019;-68
2023/05/08 09:28:23;;;;;;;30.17;27.15;;;;;;;19.55;100.00;102072.38;5096440;28;20024;-68
2023/05/08 09:30:52;;;;;;;29.27;26.55;;;;;;;19.58;100.00;102078.28;5096947;28;20102;-68
2023/05/08 09:33:18;;;;;;;29.98;27.13;;;;;;;19.59;100.00;102074.53;5101653;28;20031;-68
2023/05/08 09:35:43;;;;;;;29.25;26.58;;;;;;;19.61;100.00;102082.50;5098948;28;20042;-68
2023/05/08 09:38:28;;;;;;;31.30;28.35;;;;;;;19.82;100.00;102079.25;5099848;28;20118;-68
2023/05/08 09:41:10;;;;;;;31.60;28.35;;;;;;;19.79;100.00;102083.19;5099460;28;20028;-67
2023/05/08 09:43:36;;;;;;;32.13;28.95;;;;;;;19.61;100.00;102077.91;5097910;28;20028;-68
2023/05/08 09:46:24;;;;;;;35.22;31.77;;;;;;;19.79;100.00;102082.31;5099805;28;20027;-68
2023/05/08 09:48:50;;;;;;;35.05;31.30;;;;;;;19.64;100.00;102083.00;5105103;28;20080;-68
2023/05/08 09:51:16;;;;;;;37.08;33.25;;;;;;;19.64;100.00;102084.88;5102096;27;20034;-68
2023/05/08 09:53:42;;;;;;;36.00;32.33;;;;;;;19.62;100.00;102076.91;5104855;28;20027;-68
2023/05/08 09:56:07;;;;;;;37.17;33.20;;;;;;;19.49;100.00;102079.28;5098552;28;20031;-68
2023/05/08 09:58:43;;;;;;;36.88;33.15;;;;;;;19.63;100.00;102089.44;5098916;28;20052;-68
2023/05/08 10:01:31;;;;;;;40.20;34.55;;;;;;;19.63;100.00;102084.03;5101033;27;20263;-68
2023/05/08 10:03:57;;;;;;;37.30;33.47;;;;;;;19.53;100.00;102086.06;5103863;28;20034;-68
2023/05/08 10:06:22;;;;;;;39.05;34.75;;;;;;;19.51;100.00;102084.53;5102695;28;20480;-68
2023/05/08 10:08:48;;;;;;;37.63;33.78;;;;;;;19.57;100.00;102090.13;5100796;28;20027;-68
2023/05/08 10:11:17;;;;;;;37.72;33.75;;;;;;;19.43;100.00;102094.38;5106078;28;20096;-68
2023/05/08 10:13:46;;;;;;;38.38;34.38;;;;;;;19.58;100.00;102091.81;5096820;28;20032;-68
2023/05/08 10:16:19;;;;;;;40.67;35.45;;;;;;;19.56;100.00;102087.56;5099834;28;20039;-68
2023/05/08 10:18:47;;;;;;;37.67;33.67;;;;;;;19.54;100.00;102092.31;5100400;28;20059;-68
2023/05/08 10:21:13;;;;;;;37.65;33.55;;;;;;;19.48;100.00;102093.00;5097325;28;20038;-68
2023/05/08 10:23:44;;;;;;;39.30;35.13;;;;;;;19.61;100.00;102085.19;5098123;28;20447;-68
2023/05/08 10:26:17;;;;;;;39.28;35.17;;;;;;;19.55;100.00;102091.31;5100475;28;20115;-68
2023/05/08 10:28:53;;;;;;;39.92;35.63;;;;;;;19.64;100.00;102098.41;5105552;28;20106;-68
2023/05/08 10:31:20;;;;;;;37.85;33.85;;;;;;;19.55;100.00;102085.91;5093784;28;20024;-68
2023/05/08 10:33:52;;;;;;;39.20;35.08;;;;;;;19.48;100.00;102098.41;5104785;27;20507;-68
2023/05/08 10:36:18;;;;;;;38.70;34.50;;;;;;;19.54;100.00;102095.88;5099103;28;20031;-68
2023/05/08 10:38:44;;;;;;;36.42;32.53;;;;;;;19.52;100.00;102086.25;5097947;28;20374;-68
2023/05/08 10:41:10;;;;;;;37.83;33.80;;;;;;;19.54;100.00;102084.22;5098082;28;20032;-68
2023/05/08 10:43:41;;;;;;;41.60;35.05;;;;;;;19.62;100.00;102087.75;5100324;28;20367;-68
2023/05/08 10:46:12;;;;;;;41.70;35.50;;;;;;;19.69;100.00;102090.59;5105386;28;20024;-68
2023/05/08 10:48:55;;;;;;;41.22;34.63;;;;;;;19.87;100.00;102089.59;5105653;27;20043;-68
2023/05/08 10:51:34;;;;;;;40.38;34.95;;;;;;;20.01;100.00;102092.41;5099679;28;20115;-68
2023/05/08 10:54:12;;;;;;;40.63;36.22;;;;;;;20.11;100.00;102086.78;5097567;28;20032;-68
2023/05/08 10:56:38;;;;;;;39.35;34.90;;;;;;;20.20;100.00;102080.31;5094804;28;20039;-69
2023/05/08 10:59:04;;;;;;;38.75;34.28;;;;;;;20.33;100.00;102070.78;5099510;28;20080;-69
2023/05/08 11:01:29;;;;;;;41.28;36.80;;;;;;;20.46;100.00;102081.88;5103114;28;20031;-69
2023/05/08 11:03:55;;;;;;;43.50;38.72;;;;;;;20.57;100.00;102077.94;5108329;28;20138;-69
2023/05/08 11:06:42;;;;;;;43.35;38.60;;;;;;;20.70;100.00;102069.22;5095906;28;20065;-68